.
WxDataArchive / Data Records for 2007-12-01
2007-11-30 December 2007 2007-12-02

Data Records for Saturday, 01 December 2007

Time	Temp	Chill	HIndex	Humid	Dewpt	 Wind 	HiWind	WindDir	Rain 	Barom 
-----	----	-----	------	-----	-----	------	------	-------	-----	----- 
00:00	18.9	18.9	18.9	69	10.4	0	0	---	0.00	30.436 
00:05	18.8	18.8	18.8	69	10.3	0	0	---	0.00	30.435 
00:10	18.6	18.6	18.6	70	10.5	0	0	---	0.00	30.437 
00:15	18.8	18.8	18.8	71	11.0	0	0	---	0.00	30.444 
00:20	19.2	19.2	19.2	71	11.4	0	0	---	0.00	30.447 
00:25	19.2	19.2	19.2	70	11.0	0	0	---	0.00	30.444 
00:30	19.1	19.1	19.1	70	11.0	0	0	---	0.00	30.444 
00:35	18.9	18.9	18.9	70	10.8	0	0	---	0.00	30.449 
00:40	18.8	18.8	18.8	71	11.0	0	0	---	0.00	30.444 
00:45	18.6	18.6	18.6	71	10.8	0	0	---	0.00	30.442 
00:50	18.6	18.6	18.6	71	10.8	0	0	---	0.00	30.440 
00:55	18.4	18.4	18.4	72	10.9	0	0	---	0.00	30.441 
01:00	18.1	18.1	18.1	72	10.6	0	0	---	0.00	30.440 
01:05	18.1	18.1	18.1	73	10.9	0	0	---	0.00	30.439 
01:10	18.0	18.0	18.0	73	10.8	0	0	---	0.00	30.444 
01:15	18.0	18.0	18.0	74	11.1	0	0	---	0.00	30.447 
01:20	18.0	18.0	18.0	74	11.1	0	0	---	0.00	30.448 
01:25	17.8	17.8	17.8	74	10.9	0	0	---	0.00	30.448 
01:30	17.7	17.7	17.7	74	10.8	0	0	---	0.00	30.453 
01:35	17.5	17.5	17.5	75	11.0	0	0	---	0.00	30.450 
01:40	17.5	17.5	17.5	75	11.0	0	0	---	0.00	30.454 
01:45	17.5	17.5	17.5	75	11.0	0	0	---	0.00	30.457 
01:50	17.7	17.7	17.7	76	11.4	0	0	---	0.00	30.459 
01:55	17.5	17.5	17.5	76	11.3	0	0	---	0.00	30.454 
02:00	17.5	17.5	17.5	76	11.3	0	0	---	0.00	30.457 
02:05	17.3	17.3	17.3	76	11.1	0	0	---	0.00	30.461 
02:10	17.3	17.3	17.3	76	11.1	0	0	---	0.00	30.460 
02:15	17.2	17.2	17.2	76	11.0	0	0	---	0.00	30.460 
02:20	17.2	17.2	17.2	76	11.0	0	0	---	0.00	30.458 
02:25	17.0	17.0	17.0	77	11.1	0	0	---	0.00	30.454 
02:30	17.0	17.0	17.0	77	11.1	0	0	---	0.00	30.452 
02:35	17.0	17.0	17.0	77	11.1	0	0	---	0.00	30.457 
02:40	17.0	17.0	17.0	78	11.3	0	0	---	0.00	30.459 
02:45	17.2	17.2	17.2	78	11.5	0	0	---	0.00	30.463 
02:50	17.3	17.3	17.3	78	11.6	0	0	---	0.00	30.464 
02:55	17.5	17.5	17.5	79	12.1	0	0	---	0.00	30.465 
03:00	17.7	17.7	17.7	79	12.3	0	0	---	0.00	30.462 
03:05	18.0	18.0	18.0	80	12.9	0	0	---	0.00	30.466 
03:10	18.3	18.3	18.3	80	13.2	0	0	---	0.00	30.469 
03:15	18.4	18.4	18.4	80	13.3	0	0	---	0.00	30.471 
03:20	18.8	18.8	18.8	80	13.7	0	0	---	0.00	30.472 
03:25	19.1	19.1	19.1	80	14.0	0	0	---	0.00	30.476 
03:30	19.4	19.4	19.4	79	14.0	0	0	---	0.00	30.480 
03:35	19.7	19.7	19.7	79	14.3	0	0	---	0.00	30.480 
03:40	19.9	19.9	19.9	79	14.5	0	0	---	0.00	30.479 
03:45	19.9	19.9	19.9	78	14.2	0	0	---	0.00	30.479 
03:50	20.2	20.2	20.2	77	14.2	0	0	---	0.00	30.478 
03:55	20.2	20.2	20.2	77	14.2	0	0	---	0.00	30.477 
04:00	20.3	20.3	20.3	76	14.0	0	0	---	0.00	30.477 
04:05	20.5	20.5	20.5	76	14.2	0	0	---	0.00	30.483 
04:10	20.6	20.6	20.6	74	13.7	0	0	---	0.00	30.481 
04:15	20.8	20.8	20.8	74	13.8	0	0	---	0.00	30.481 
04:20	20.8	20.8	20.8	73	13.5	0	0	---	0.00	30.480 
04:25	20.8	20.8	20.8	73	13.5	0	0	---	0.00	30.482 
04:30	21.0	21.0	21.0	72	13.4	0	0	---	0.00	30.479 
04:35	21.0	21.0	21.0	71	13.1	0	0	---	0.00	30.482 
04:40	21.0	21.0	21.0	71	13.1	0	0	---	0.00	30.487 
04:45	21.0	21.0	21.0	71	13.1	0	0	---	0.00	30.490 
04:50	21.0	21.0	21.0	71	13.1	0	0	---	0.00	30.489 
04:55	20.8	20.8	20.8	71	12.9	0	0	---	0.00	30.492 
05:00	20.5	20.5	20.5	72	12.9	0	0	---	0.00	30.494 
05:05	20.3	20.3	20.3	72	12.7	0	0	---	0.00	30.500 
05:10	20.0	20.0	20.0	72	12.5	0	0	---	0.00	30.502 
05:15	19.7	19.7	19.7	73	12.5	0	0	---	0.00	30.502 
05:20	19.4	19.4	19.4	73	12.2	0	0	---	0.00	30.505 
05:25	19.2	19.2	19.2	73	12.0	0	0	---	0.00	30.503 
05:30	19.1	19.1	19.1	73	11.9	0	0	---	0.00	30.502 
05:35	18.9	18.9	18.9	74	12.0	0	0	---	0.00	30.507 
05:40	18.8	18.8	18.8	74	11.9	0	0	---	0.00	30.507 
05:45	18.6	18.6	18.6	75	12.0	0	0	---	0.00	30.509 
05:50	18.6	18.6	18.6	76	12.3	0	0	---	0.00	30.504 
05:55	18.4	18.4	18.4	77	12.4	0	0	---	0.00	30.501 
06:00	18.4	18.4	18.4	77	12.4	0	0	---	0.00	30.498 
06:05	18.3	18.3	18.3	77	12.3	0	0	---	0.00	30.499 
06:10	18.1	18.1	18.1	77	12.1	0	0	---	0.00	30.504 
06:15	18.0	18.0	18.0	77	12.0	0	0	---	0.00	30.506 
06:20	17.8	17.8	17.8	78	12.1	0	0	---	0.00	30.511 
06:25	17.7	17.7	17.7	78	12.0	0	0	---	0.00	30.512 
06:30	17.7	17.7	17.7	78	12.0	0	0	---	0.00	30.517 
06:35	17.5	17.5	17.5	78	11.8	0	0	---	0.00	30.517 
06:40	17.5	17.5	17.5	78	11.8	0	0	---	0.00	30.518 
06:45	17.3	17.3	17.3	79	11.9	0	0	---	0.00	30.519 
06:50	17.3	17.3	17.3	78	11.6	0	0	---	0.00	30.521 
06:55	17.2	17.2	17.2	79	11.8	0	0	---	0.00	30.526 
07:00	17.0	17.0	17.0	79	11.6	0	0	---	0.00	30.527 
07:05	16.9	16.9	16.9	79	11.5	0	0	---	0.00	30.526 
07:10	16.9	16.9	16.9	81	12.1	0	0	---	0.00	30.523 
07:15	17.2	17.2	17.2	81	12.4	0	1	270	0.00	30.522 
07:20	17.3	17.3	17.3	81	12.5	0	0	---	0.00	30.523 
07:25	17.2	17.2	17.2	80	12.1	0	0	---	0.00	30.524 
07:30	17.2	17.2	17.2	81	12.4	0	0	---	0.00	30.523 
07:35	17.3	17.3	17.3	81	12.5	0	1	270	0.00	30.521 
07:40	17.7	17.7	17.7	81	12.9	0	1	270	0.00	30.515 
07:45	18.0	18.0	18.0	81	13.2	0	1	270	0.00	30.516 
07:50	18.4	18.4	18.4	80	13.3	0	2	270	0.00	30.514 
07:55	18.8	18.8	18.8	79	13.4	0	2	270	0.00	30.506 
08:00	18.9	18.9	18.9	78	13.2	0	2	270	0.00	30.508 
08:05	19.2	19.2	19.2	77	13.2	1	4	112	0.00	30.508 
08:10	19.5	19.5	19.5	76	13.2	1	4	90	0.00	30.506 
08:15	20.0	20.0	20.0	74	13.1	2	4	90	0.00	30.506 
08:20	20.3	20.3	20.3	74	13.4	1	3	90	0.00	30.509 
08:25	20.5	20.5	20.5	74	13.6	1	2	90	0.00	30.508 
08:30	20.8	20.8	20.8	73	13.5	1	3	90	0.00	30.513 
08:35	21.1	21.1	21.1	72	13.5	1	3	90	0.00	30.521 
08:40	21.4	21.4	21.4	72	13.8	1	3	90	0.00	30.519 
08:45	21.8	21.8	21.8	71	13.9	2	5	90	0.00	30.515 
08:50	22.1	22.1	22.1	70	13.8	1	4	112	0.00	30.520 
08:55	22.2	22.2	22.2	69	13.6	2	3	112	0.00	30.522 
09:00	22.5	22.5	22.5	69	13.9	2	6	112	0.00	30.514 
09:05	22.9	22.9	22.9	69	14.3	2	7	90	0.00	30.518 
09:10	23.0	23.0	23.0	69	14.4	3	7	90	0.00	30.508 
09:15	23.2	17.9	23.2	69	14.6	4	7	112	0.00	30.505 
09:20	23.2	17.9	23.2	68	14.2	4	9	112	0.00	30.506 
09:25	23.3	23.3	23.3	69	14.7	3	6	112	0.00	30.508 
09:30	23.5	18.3	23.5	68	14.5	4	12	112	0.00	30.513 
09:35	23.6	23.6	23.6	69	14.9	2	6	112	0.00	30.505 
09:40	23.8	23.8	23.8	68	14.8	3	7	90	0.00	30.518 
09:45	23.9	23.9	23.9	69	15.2	3	7	112	0.00	30.519 
09:50	23.9	17.6	23.9	67	14.6	5	10	90	0.00	30.516 
09:55	24.1	17.8	24.1	67	14.8	5	10	90	0.00	30.518 
10:00	24.5	24.5	24.5	66	14.8	3	7	112	0.00	30.516 
10:05	25.3	25.3	25.3	66	15.6	3	6	112	0.00	30.521 
10:10	25.7	19.7	25.7	64	15.2	5	13	112	0.00	30.513 
10:15	25.7	19.7	25.7	63	14.9	5	12	90	0.00	30.516 
10:20	26.0	26.0	26.0	62	14.8	3	7	112	0.00	30.513 
10:25	26.3	21.5	26.3	62	15.1	4	12	90	0.00	30.508 
10:30	26.3	21.5	26.3	62	15.1	4	9	112	0.00	30.507 
10:35	26.4	20.5	26.4	61	14.8	5	10	112	0.00	30.505 
10:40	26.4	21.6	26.4	61	14.8	4	11	90	0.00	30.507 
10:45	26.6	26.6	26.6	61	15.0	3	7	112	0.00	30.509 
10:50	26.6	26.6	26.6	60	14.6	3	7	112	0.00	30.509 
10:55	26.6	26.6	26.6	61	15.0	3	9	90	0.00	30.513 
11:00	26.6	21.8	26.6	61	15.0	4	7	112	0.00	30.505 
11:05	26.7	20.9	26.7	62	15.5	5	10	112	0.00	30.504 
11:10	26.9	20.2	26.9	61	15.3	6	12	90	0.00	30.502 
11:15	27.0	20.3	27.0	60	15.0	6	12	112	0.00	30.496 
11:20	27.2	20.5	27.2	61	15.6	6	12	90	0.00	30.492 
11:25	27.3	22.6	27.3	60	15.3	4	11	112	0.00	30.491 
11:30	27.5	22.9	27.5	60	15.5	4	9	112	0.00	30.491 
11:35	27.9	27.9	27.9	59	15.5	3	10	90	0.00	30.489 
11:40	27.9	22.3	27.9	58	15.1	5	10	112	0.00	30.489 
11:45	28.1	22.5	28.1	58	15.3	5	9	112	0.00	30.487 
11:50	27.9	23.3	27.9	58	15.1	4	7	112	0.00	30.485 
11:55	28.1	23.6	28.1	58	15.3	4	10	112	0.00	30.484 
12:00	28.1	23.6	28.1	58	15.3	4	7	112	0.00	30.480 
12:05	28.1	23.6	28.1	57	14.9	4	9	112	0.00	30.476 
12:10	28.2	28.2	28.2	58	15.3	3	9	112	0.00	30.474 
12:15	28.2	23.7	28.2	58	15.3	4	7	90	0.00	30.473 
12:20	28.1	23.6	28.1	59	15.6	4	9	90	0.00	30.478 
12:25	28.1	23.6	28.1	59	15.6	4	8	112	0.00	30.469 
12:30	28.2	22.6	28.2	58	15.3	5	11	112	0.00	30.469 
12:35	28.2	23.7	28.2	58	15.3	4	8	112	0.00	30.464 
12:40	28.2	23.7	28.2	58	15.3	4	8	90	0.00	30.468 
12:45	28.2	23.7	28.2	59	15.7	4	11	112	0.00	30.465 
12:50	28.4	23.9	28.4	58	15.5	4	9	90	0.00	30.460 
12:55	28.2	22.6	28.2	58	15.3	5	12	90	0.00	30.457 
13:00	28.1	23.6	28.1	58	15.3	4	8	112	0.00	30.457 
13:05	28.1	22.5	28.1	58	15.3	5	11	90	0.00	30.456 
13:10	27.9	23.3	27.9	59	15.5	4	9	90	0.00	30.456 
13:15	28.1	28.1	28.1	58	15.3	3	7	90	0.00	30.456 
13:20	28.2	23.7	28.2	58	15.3	4	9	112	0.00	30.457 
13:25	28.2	28.2	28.2	58	15.3	3	7	112	0.00	30.457 
13:30	28.1	23.6	28.1	58	15.3	4	9	90	0.00	30.451 
13:35	28.2	28.2	28.2	60	16.1	3	7	112	0.00	30.445 
13:40	28.1	22.5	28.1	59	15.6	5	8	90	0.00	30.440 
13:45	28.1	28.1	28.1	60	16.0	3	10	90	0.00	30.435 
13:50	28.2	22.6	28.2	60	16.1	5	9	90	0.00	30.428 
13:55	28.2	23.7	28.2	60	16.1	4	9	112	0.00	30.429 
14:00	28.2	23.7	28.2	60	16.1	4	11	112	0.00	30.426 
14:05	28.2	22.6	28.2	60	16.1	5	10	112	0.00	30.425 
14:10	28.2	22.6	28.2	60	16.1	5	10	90	0.00	30.425 
14:15	28.2	23.7	28.2	60	16.1	4	9	112	0.00	30.418 
14:20	28.2	22.6	28.2	60	16.1	5	10	112	0.00	30.411 
14:25	28.4	22.8	28.4	61	16.7	5	9	112	0.00	30.408 
14:30	28.4	21.9	28.4	60	16.3	6	13	90	0.00	30.405 
14:35	28.4	23.9	28.4	61	16.7	4	10	112	0.00	30.408 
14:40	28.4	23.9	28.4	62	17.1	4	9	112	0.00	30.407 
14:45	28.4	23.9	28.4	61	16.7	4	11	112	0.00	30.399 
14:50	28.4	23.9	28.4	61	16.7	4	11	112	0.00	30.401 
14:55	28.4	22.8	28.4	61	16.7	5	10	90	0.00	30.395 
15:00	28.4	21.9	28.4	62	17.1	6	12	112	0.00	30.392 
15:05	28.4	23.9	28.4	62	17.1	4	10	90	0.00	30.389 
15:10	28.4	23.9	28.4	62	17.1	4	10	112	0.00	30.381 
15:15	28.4	21.2	28.4	62	17.1	7	15	90	0.00	30.379 
15:20	28.4	22.8	28.4	62	17.1	5	10	90	0.00	30.376 
15:25	28.4	23.9	28.4	62	17.1	4	9	90	0.00	30.375 
15:30	28.4	22.8	28.4	62	17.1	5	14	90	0.00	30.371 
15:35	28.4	23.9	28.4	62	17.1	4	11	90	0.00	30.364 
15:40	28.4	22.8	28.4	62	17.1	5	11	112	0.00	30.361 
15:45	28.4	22.8	28.4	62	17.1	5	13	112	0.00	30.361 
15:50	28.4	23.9	28.4	63	17.4	4	9	112	0.00	30.361 
15:55	28.4	22.8	28.4	62	17.1	5	10	112	0.00	30.360 
16:00	28.4	22.8	28.4	63	17.4	5	10	112	0.00	30.353 
16:05	28.2	20.9	28.2	67	18.7	7	15	112	0.00	30.349 
16:10	27.8	21.2	27.8	72	20.0	6	13	112	0.00	30.350 
16:15	27.2	20.5	27.2	76	20.7	6	13	90	0.00	30.347 
16:20	26.7	20.9	26.7	79	21.1	5	13	90	0.00	30.345 
16:25	26.6	20.7	26.6	81	21.6	5	13	112	0.00	30.337 
16:30	26.4	19.6	26.4	83	22.0	6	13	90	0.00	30.329 
16:35	26.1	19.2	26.1	84	21.9	6	10	112	0.00	30.327 
16:40	26.1	20.1	26.1	85	22.2	5	12	90	0.00	30.318 
16:45	26.3	19.4	26.3	85	22.4	6	12	112	0.00	30.315 
16:50	26.4	19.6	26.4	86	22.8	6	11	90	0.00	30.312 
16:55	26.6	20.7	26.6	86	23.0	5	12	112	0.00	30.312 
17:00	26.6	19.8	26.6	85	22.7	6	15	112	0.00	30.312 
17:05	26.7	20.9	26.7	85	22.8	5	12	90	0.00	30.317 
17:10	26.9	26.9	26.9	86	23.3	3	9	112	0.00	30.317 
17:15	26.9	21.1	26.9	85	23.0	5	11	112	0.00	30.317 
17:20	27.0	21.2	27.0	85	23.1	5	13	112	0.00	30.316 
17:25	27.0	21.2	27.0	85	23.1	5	12	90	0.00	30.299 
17:30	27.0	21.2	27.0	84	22.8	5	16	90	0.00	30.287 
17:35	27.0	19.5	27.0	84	22.8	7	15	90	0.00	30.272 
17:40	27.0	20.3	27.0	84	22.8	6	13	112	0.00	30.281 
17:45	27.0	20.3	27.0	83	22.5	6	11	112	0.00	30.284 
17:50	27.0	21.2	27.0	83	22.5	5	12	112	0.00	30.286 
17:55	27.0	21.2	27.0	84	22.8	5	11	112	0.00	30.281 
18:00	27.0	21.2	27.0	84	22.8	5	10	112	0.00	30.278 
18:05	27.0	21.2	27.0	83	22.5	5	11	112	0.00	30.273 
18:10	27.2	19.7	27.2	83	22.7	7	14	112	0.00	30.269 
18:15	27.2	21.4	27.2	83	22.7	5	11	112	0.00	30.271 
18:20	27.3	21.6	27.3	82	22.5	5	12	90	0.00	30.268 
18:25	27.3	22.6	27.3	82	22.5	4	12	112	0.00	30.268 
18:30	27.3	20.6	27.3	81	22.3	6	11	112	0.00	30.254 
18:35	27.5	22.9	27.5	81	22.4	4	10	112	0.00	30.254 
18:40	27.5	21.8	27.5	81	22.4	5	11	112	0.00	30.259 
18:45	27.5	20.1	27.5	80	22.2	7	13	112	0.00	30.250 
18:50	27.6	20.2	27.6	80	22.3	7	12	90	0.00	30.241 
18:55	27.6	20.2	27.6	80	22.3	7	13	112	0.00	30.247 
19:00	27.8	22.1	27.8	80	22.4	5	10	112	0.00	30.240 
19:05	27.8	22.1	27.8	80	22.4	5	9	112	0.00	30.245 
19:10	27.9	21.3	27.9	79	22.2	6	13	112	0.00	30.231 
19:15	27.9	22.3	27.9	79	22.2	5	12	112	0.00	30.227 
19:20	27.9	23.3	27.9	79	22.2	4	9	112	0.00	30.244 
19:25	28.1	20.8	28.1	79	22.4	7	13	112	0.00	30.208 
19:30	28.1	20.8	28.1	79	22.4	7	13	112	0.00	30.203 
19:35	28.1	23.6	28.1	80	22.7	4	7	112	0.00	30.218 
19:40	28.2	22.6	28.2	80	22.8	5	11	112	0.00	30.205 
19:45	28.2	21.7	28.2	79	22.5	6	16	112	0.00	30.195 
19:50	28.2	22.6	28.2	79	22.5	5	14	90	0.00	30.191 
19:55	28.4	22.8	28.4	79	22.7	5	11	112	0.00	30.189 
20:00	28.4	22.8	28.4	79	22.7	5	11	112	0.00	30.192 
20:05	28.5	24.0	28.5	79	22.8	4	11	112	0.00	30.191 
20:10	28.5	24.0	28.5	79	22.8	4	10	112	0.00	30.193 
20:15	28.7	23.2	28.7	78	22.7	5	12	112	0.00	30.187 
20:20	28.7	24.3	28.7	78	22.7	4	10	90	0.00	30.181 
20:25	28.7	24.3	28.7	79	23.0	4	9	90	0.00	30.180 
20:30	28.8	23.3	28.8	79	23.1	5	11	90	0.00	30.173 
20:35	28.8	23.3	28.8	79	23.1	5	11	90	0.00	30.176 
20:40	29.0	24.6	29.0	79	23.3	4	7	112	0.00	30.177 
20:45	29.0	24.6	29.0	79	23.3	4	11	112	0.00	30.168 
20:50	29.0	22.7	29.0	78	23.0	6	12	112	0.00	30.152 
20:55	29.1	23.7	29.1	78	23.1	5	13	90	0.00	30.157 
21:00	29.1	23.7	29.1	78	23.1	5	9	90	0.00	30.150 
21:05	29.1	23.7	29.1	79	23.4	5	11	90	0.00	30.143 
21:10	29.1	23.7	29.1	79	23.4	5	12	112	0.00	30.135 
21:15	29.3	23.0	29.3	79	23.6	6	11	112	0.00	30.127 
21:20	29.3	23.9	29.3	79	23.6	5	9	112	0.00	30.119 
21:25	29.3	23.9	29.3	79	23.6	5	9	112	0.00	30.117 
21:30	29.4	24.0	29.4	79	23.7	5	11	90	0.00	30.115 
21:35	29.4	24.0	29.4	78	23.4	5	11	112	0.00	30.103 
21:40	29.5	23.3	29.5	77	23.2	6	12	112	0.00	30.102 
21:45	29.5	24.1	29.5	77	23.2	5	10	112	0.00	30.096 
21:50	29.7	25.4	29.7	77	23.4	4	9	112	0.00	30.087 
21:55	29.7	24.4	29.7	77	23.4	5	10	90	0.00	30.081 
22:00	29.7	24.4	29.7	76	23.1	5	10	112	0.00	30.075 
22:05	29.7	24.4	29.7	76	23.1	5	10	112	0.00	30.067 
22:10	29.8	25.5	29.8	75	22.9	4	9	112	0.00	30.066 
22:15	30.0	25.8	30.0	75	23.1	4	11	112	0.00	30.058 
22:20	30.0	25.8	30.0	73	22.4	4	12	112	0.00	30.055 
22:25	30.1	24.8	30.1	71	21.9	5	11	112	0.00	30.047 
22:30	30.3	26.1	30.3	70	21.7	4	9	112	0.00	30.036 
22:35	30.3	26.1	30.3	70	21.7	4	9	112	0.00	30.033 
22:40	30.4	30.4	30.4	69	21.5	3	12	135	0.00	30.023 
22:45	30.6	26.5	30.6	67	21.0	4	14	112	0.00	30.019 
22:50	30.7	25.5	30.7	66	20.7	5	14	112	0.00	30.014 
22:55	30.7	30.7	30.7	67	21.1	3	10	112	0.00	30.006 
23:00	30.7	26.6	30.7	66	20.7	4	11	90	0.00	30.003 
23:05	30.7	30.7	30.7	66	20.7	3	7	112	0.00	29.995 
23:10	30.7	30.7	30.7	66	20.7	3	11	112	0.00	29.994 
23:15	30.9	30.9	30.9	66	20.9	2	5	112	0.00	30.001 
23:20	30.9	30.9	30.9	65	20.5	3	6	112	0.00	29.988 
23:25	31.0	31.0	31.0	65	20.6	3	9	112	0.00	29.978 
23:30	31.2	31.2	31.2	64	20.5	2	6	90	0.00	29.979 
23:35	31.3	31.3	31.3	65	20.9	3	5	112	0.00	29.976 
23:40	31.5	31.5	31.5	66	21.5	2	6	90	0.00	29.970 
23:45	31.6	31.6	31.6	65	21.2	2	6	112	0.00	29.962 
23:50	31.8	31.8	31.8	65	21.4	2	6	90	0.00	29.960 
23:55	31.8	31.8	31.8	65	21.4	2	5	90	0.00	29.956 

CoCoRaHS
IN-AL-39
A2 Web Hosting
Creative Commons License
GoDaddy
Look for:

loaded 2017-12-13 19:48:13 • last modified 2010-11-18 10:43:29
Privacy PolicyDisclaimer
• wx.awcolley.com is powered by PmWiki v.2002016 •
• all content (unless otherwise noted) © 2017 A W Colley